CYEV

Details ICAO CYEV (YEV)
Name INUVIK MIKE ZUBKO
Region Canada
Timezone America/Inuvik (UTC-7.0)
Plans Departing 20
Arriving 16
Stats Elevation 224 ft / 68 m (AMSL)
Location 68.303792° -133.483167°
Runways 1
Magnetic Variation 21.596° E
Sunrise Unknown / Unknown
Sunset Unknown / Unknown
Advertisement - Login to hide

Runways

ID Width Length Bearing (true) Bearing (mag) Surface Threshold Offset Overrun Length
06 150 ft / 46 m 5,982 ft / 1,823 m 85.80° 64.20° Asphalt 0 ft / 0 m 0 ft / 0 m
24 150 ft / 46 m 5,982 ft / 1,823 m 265.84° 244.24° Asphalt 0 ft / 0 m 0 ft / 0 m

Map

Weather


0- 5 10 15 20 25 30 35+ Temperature / ° C

Clouds and Precipitation
Forecast for 2017-12-17 06:00 UTC. Updated an hour ago

Ground ~20,000 ft ~40,000 ft Winds

METAR

CYEV 170200Z 06005KT 15SM -SN BKN060 OVC087 M14/M16 A2937 RMK SC6AC2 SLP956

TAF

TAF CYEV 170038Z 1701/1713 06008KT P6SM -SN SCT008 OVC030 TEMPO 1701/1713 21/2SM -SN SCT004 OVC008 PROB30 1701/1713 06013KT 1SM -SHSN VV004 RMK NXT FCST BY 170700Z

Frequencies

Recorded 128.50 MHz ATIS
Unicom 122.30 MHz MANDATORY FREQ
Warning: Do not use this data for real-world aviation or navigation. No guarantee of current accuracy is given.